Stellar Stream — 3EJI6 — position and weather

sailwx.info

Track history (hours):
 
Tides and Currents Weather Stations Pressure Air Temp Water Temp Dewpoint Dewpoint Depression Visibility Wind Speed Wind Dir Waves Ship Positions

Stellar Stream

Last reported at 2017-Dec-15 07:51 UTC. Time now 2018-Jan-20 21:06 UTC.
Position N 07°28' W 014°57'.
Warning: this ship's position is 36 days out of date.

Length 186 m; draft 9 m.

Type: Ship (hazmat cat B). MMSI: 374402000.

Date/timePositionNaut miles runAvg speedWind from/ knotsBaromVisibWave heightAir tempDewpointWater temp
2017-Dec-15 07:51N 07°28' W 014°57'514.6
2017-Dec-15 07:31N 07°32' W 015°00'814.6
2017-Dec-15 06:58N 07°38' W 015°05'1214.7
2017-Dec-15 06:08N 07°47' W 015°14'315.1
2017-Dec-15 05:58N 07°49' W 015°15'5214.7
2017-Dec-15 02:27N 08°27' W 015°50'2114.8
2017-Dec-15 01:01N 08°43' W 016°05'714.8
2017-Dec-15 00:31N 08°49' W 016°10'  
2017-Dec-11 11:00N 28°05' W 016°16'814.7
2017-Dec-11 10:28N 28°11' W 016°11'714.6
2017-Dec-11 10:00N 28°17' W 016°06'714.7
2017-Dec-11 09:31N 28°22' W 016°00'714.2
2017-Dec-11 09:01N 28°28' W 015°55'714.3
2017-Dec-11 08:30N 28°33' W 015°50'714.1
2017-Dec-11 08:00N 28°39' W 015°45'714.4
2017-Dec-11 07:30N 28°44' W 015°39'714.5
2017-Dec-11 07:00N 28°49' W 015°34'714.3
2017-Dec-11 06:30N 28°55' W 015°29'714.6
2017-Dec-11 06:00N 29°02' W 015°27'7014.6
2017-Dec-11 01:13N 30°11' W 015°13'314.8
2017-Dec-11 01:00N 30°14' W 015°12'714.6
2017-Dec-11 00:30N 30°21' W 015°11'914.5
2017-Dec-10 23:52N 30°30' W 015°09'  
2017-Dec-06 23:53N 49°31' W 004°23'611.8
2017-Dec-06 23:22N 49°34' W 004°15'2710.9
2017-Dec-06 20:51N 49°46' W 003°36'  
Track history (hours):
 
Tides and Currents Weather Stations Pressure Air Temp Water Temp Dewpoint Dewpoint Depression Visibility Wind Speed Wind Dir Waves Ship Positions

Stellar Stream

Last reported at 2017-Dec-15 07:51 UTC. Time now 2018-Jan-20 21:06 UTC.
Position N 07°28' W 014°57'.
Warning: this ship's position is 36 days out of date.

Length 186 m; draft 9 m.

Type: Ship (hazmat cat B). MMSI: 374402000.

Date/timePositionNaut miles runAvg speedWind from/ knotsBaromVisibWave heightAir tempDewpointWater temp
2017-Dec-15 07:51N 07°28' W 014°57'514.6
2017-Dec-15 07:31N 07°32' W 015°00'814.6
2017-Dec-15 06:58N 07°38' W 015°05'1214.7
2017-Dec-15 06:08N 07°47' W 015°14'315.1
2017-Dec-15 05:58N 07°49' W 015°15'5214.7
2017-Dec-15 02:27N 08°27' W 015°50'2114.8
2017-Dec-15 01:01N 08°43' W 016°05'714.8
2017-Dec-15 00:31N 08°49' W 016°10'  
2017-Dec-11 11:00N 28°05' W 016°16'814.7
2017-Dec-11 10:28N 28°11' W 016°11'714.6
2017-Dec-11 10:00N 28°17' W 016°06'714.7
2017-Dec-11 09:31N 28°22' W 016°00'714.2
2017-Dec-11 09:01N 28°28' W 015°55'714.3
2017-Dec-11 08:30N 28°33' W 015°50'714.1
2017-Dec-11 08:00N 28°39' W 015°45'714.4
2017-Dec-11 07:30N 28°44' W 015°39'714.5
2017-Dec-11 07:00N 28°49' W 015°34'714.3
2017-Dec-11 06:30N 28°55' W 015°29'714.6
2017-Dec-11 06:00N 29°02' W 015°27'7014.6
2017-Dec-11 01:13N 30°11' W 015°13'314.8
2017-Dec-11 01:00N 30°14' W 015°12'714.6
2017-Dec-11 00:30N 30°21' W 015°11'914.5
2017-Dec-10 23:52N 30°30' W 015°09'  
2017-Dec-06 23:53N 49°31' W 004°23'611.8
2017-Dec-06 23:22N 49°34' W 004°15'2710.9
2017-Dec-06 20:51N 49°46' W 003°36'  

Dump ship's entire track history